createdAt,value
2023-05-23T00:02:15.459Z,7.60
2023-05-23T00:05:03.576Z,7.03
2023-05-23T00:07:50.648Z,7.20
2023-05-23T00:10:37.611Z,7.57
2023-05-23T00:13:24.761Z,7.80
2023-05-23T00:16:11.724Z,7.50
2023-05-23T00:18:59.258Z,7.80
2023-05-23T00:21:51.322Z,7.40
2023-05-23T00:24:38.408Z,7.37
2023-05-23T00:27:25.357Z,7.37
2023-05-23T00:30:12.438Z,7.03
2023-05-23T00:33:00.271Z,7.50
2023-05-23T00:35:48.477Z,6.70
2023-05-23T00:38:35.551Z,7.63
2023-05-23T00:41:22.566Z,7.20
2023-05-23T00:44:09.918Z,7.47
2023-05-23T00:46:57.797Z,7.20
2023-05-23T00:49:45.143Z,7.00
2023-05-23T00:52:32.150Z,7.00
2023-05-23T00:55:19.186Z,6.97
2023-05-23T00:58:06.555Z,7.07
2023-05-23T01:00:54.533Z,7.40
2023-05-23T01:03:41.747Z,7.30
2023-05-23T01:06:30.607Z,7.13
2023-05-23T01:09:18.803Z,6.60
2023-05-23T01:12:15.739Z,6.30
2023-05-23T01:15:10.716Z,7.27
2023-05-23T01:18:12.949Z,7.30
2023-05-23T01:21:22.886Z,7.03
2023-05-23T01:24:54.646Z,6.70
2023-05-23T01:28:03.616Z,7.33
2023-05-23T01:30:53.505Z,6.90
2023-05-23T01:33:41.210Z,7.30
2023-05-23T01:36:28.483Z,7.20
2023-05-23T01:39:15.709Z,7.27
2023-05-23T01:42:03.058Z,6.90
2023-05-23T01:44:50.211Z,7.73
2023-05-23T01:47:40.570Z,7.70
2023-05-23T01:50:28.227Z,7.20
2023-05-23T01:53:17.345Z,7.10
2023-05-23T01:56:04.920Z,7.60
2023-05-23T01:58:51.996Z,7.37
2023-05-23T02:01:39.785Z,7.00
2023-05-23T02:04:28.422Z,7.40
2023-05-23T02:07:15.649Z,6.93
2023-05-23T02:10:04.339Z,7.77
2023-05-23T02:12:51.412Z,8.20
2023-05-23T02:15:38.476Z,8.27
2023-05-23T02:18:26.345Z,7.90
2023-05-23T02:21:13.770Z,8.17
2023-05-23T02:24:00.773Z,8.13
2023-05-23T02:26:47.738Z,8.07
2023-05-23T02:29:34.724Z,7.73
2023-05-23T02:32:21.823Z,8.10
2023-05-23T02:35:09.073Z,7.47
2023-05-23T02:37:56.085Z,8.17
2023-05-23T02:40:43.061Z,7.07
2023-05-23T02:43:30.101Z,7.20
2023-05-23T02:46:17.140Z,7.53
2023-05-23T02:49:04.164Z,7.13
2023-05-23T02:51:51.152Z,7.17
2023-05-23T02:54:38.295Z,7.20
2023-05-23T02:57:25.291Z,7.07
2023-05-23T03:00:13.562Z,6.80
2023-05-23T03:03:02.633Z,7.23
2023-05-23T03:05:49.925Z,6.53
2023-05-23T03:08:37.018Z,7.10
2023-05-23T03:11:24.161Z,7.53
2023-05-23T03:14:11.520Z,7.63
2023-05-23T03:16:58.652Z,7.00
2023-05-23T03:19:45.751Z,6.93
2023-05-23T03:22:32.875Z,7.13
2023-05-23T03:25:20.003Z,6.60
2023-05-23T03:28:07.979Z,7.60
2023-05-23T03:30:55.094Z,7.53
2023-05-23T03:33:42.213Z,7.10
2023-05-23T03:36:33.338Z,7.90
2023-05-23T03:39:20.547Z,7.43
2023-05-23T03:42:07.720Z,7.60
2023-05-23T03:44:55.322Z,7.33
2023-05-23T03:47:43.335Z,7.47
2023-05-23T03:50:30.643Z,7.13
2023-05-23T03:53:17.757Z,7.43
2023-05-23T03:56:05.535Z,7.30
2023-05-23T03:58:52.749Z,7.43
2023-05-23T04:01:39.910Z,7.27
2023-05-23T04:04:30.390Z,7.00
2023-05-23T04:07:17.875Z,7.10
2023-05-23T04:10:05.768Z,7.50
2023-05-23T04:12:53.516Z,7.60
2023-05-23T04:15:41.274Z,7.33
2023-05-23T04:18:33.498Z,8.17
2023-05-23T04:21:20.721Z,7.50
2023-05-23T04:24:17.521Z,7.20
2023-05-23T04:27:04.824Z,7.37
2023-05-23T04:29:52.398Z,7.83
2023-05-23T04:32:40.231Z,7.63
2023-05-23T04:35:28.359Z,7.90
2023-05-23T04:38:15.852Z,8.40
2023-05-23T04:41:03.260Z,8.40
2023-05-23T04:43:58.436Z,7.53
2023-05-23T04:46:50.366Z,8.77
2023-05-23T04:49:43.920Z,8.43
2023-05-23T04:52:33.893Z,8.13
2023-05-23T04:55:21.554Z,8.30
2023-05-23T04:58:09.769Z,8.33
2023-05-23T05:00:56.974Z,8.90
2023-05-23T05:03:44.259Z,8.57
2023-05-23T05:06:31.628Z,8.77
2023-05-23T05:09:19.039Z,9.30
2023-05-23T05:12:06.776Z,9.30
2023-05-23T05:14:53.874Z,9.37
2023-05-23T05:17:41.994Z,9.57
2023-05-23T05:20:31.732Z,9.67
2023-05-23T05:23:18.743Z,10.13
2023-05-23T05:26:06.373Z,9.83
2023-05-23T05:28:53.392Z,8.77
2023-05-23T05:31:41.478Z,8.53
2023-05-23T05:34:29.730Z,8.80
2023-05-23T05:37:17.241Z,8.67
2023-05-23T05:40:07.592Z,8.50
2023-05-23T05:42:56.885Z,8.00
2023-05-23T05:45:44.420Z,8.20
2023-05-23T05:48:31.551Z,8.70
2023-05-23T05:51:22.433Z,9.40
2023-05-23T05:54:09.537Z,8.93
2023-05-23T05:56:56.640Z,8.37
2023-05-23T05:59:44.521Z,8.80
2023-05-23T06:02:32.746Z,8.63
2023-05-23T06:05:19.913Z,8.40
2023-05-23T06:08:07.778Z,9.50
2023-05-23T06:10:56.663Z,8.77
2023-05-23T06:13:45.307Z,8.63
2023-05-23T06:16:32.501Z,8.67
2023-05-23T06:19:19.840Z,8.53
2023-05-23T06:22:07.277Z,8.43
2023-05-23T06:24:54.227Z,8.50
2023-05-23T06:27:41.353Z,8.33
2023-05-23T06:30:29.445Z,8.53
2023-05-23T06:33:17.080Z,8.77
2023-05-23T06:36:04.370Z,8.37
2023-05-23T06:38:52.352Z,8.43
2023-05-23T06:41:39.989Z,8.07
2023-05-23T06:44:27.055Z,7.87
2023-05-23T06:47:14.810Z,7.90
2023-05-23T06:50:02.673Z,7.67
2023-05-23T06:52:50.175Z,7.33
2023-05-23T06:55:37.187Z,8.77
2023-05-23T06:58:26.811Z,7.77
2023-05-23T07:01:16.703Z,7.87
2023-05-23T07:04:08.027Z,8.17
2023-05-23T07:06:55.245Z,7.50
2023-05-23T07:09:42.357Z,8.17
2023-05-23T07:12:34.893Z,8.50
2023-05-23T07:15:22.084Z,7.23
2023-05-23T07:18:24.295Z,7.10
2023-05-23T07:21:11.767Z,7.20
2023-05-23T07:23:59.101Z,7.40
2023-05-23T07:26:46.178Z,6.83
2023-05-23T07:29:33.307Z,7.27
2023-05-23T07:32:20.334Z,6.20
2023-05-23T07:35:08.498Z,6.43
2023-05-23T07:37:56.049Z,6.23
2023-05-23T07:40:43.235Z,6.53
2023-05-23T07:43:31.283Z,6.50
2023-05-23T07:46:18.440Z,6.60
2023-05-23T07:49:05.534Z,6.40
2023-05-23T07:51:52.522Z,6.37
2023-05-23T07:54:39.800Z,6.17
2023-05-23T07:57:28.107Z,5.87
2023-05-23T08:00:15.744Z,6.30
2023-05-23T08:03:03.394Z,6.60
2023-05-23T08:05:57.106Z,6.70
2023-05-23T08:08:44.494Z,6.07
2023-05-23T08:11:31.645Z,5.83
2023-05-23T08:14:18.788Z,6.13
2023-05-23T08:17:26.890Z,6.20
2023-05-23T08:20:14.666Z,6.03
2023-05-23T08:23:02.275Z,5.83
2023-05-23T08:25:49.886Z,5.50
2023-05-23T08:28:37.465Z,5.93
2023-05-23T08:31:24.676Z,5.40
2023-05-23T08:34:12.411Z,5.40
2023-05-23T08:36:59.908Z,5.90
2023-05-23T08:39:47.269Z,6.10
2023-05-23T08:42:48.652Z,5.30
2023-05-23T08:45:36.056Z,5.00
2023-05-23T08:48:27.012Z,5.30
2023-05-23T08:51:17.325Z,5.20
2023-05-23T08:54:06.164Z,5.00
2023-05-23T08:56:53.615Z,5.63
2023-05-23T08:59:41.347Z,5.50
2023-05-23T09:02:29.354Z,6.00
2023-05-23T09:05:27.261Z,5.50
2023-05-23T09:08:15.342Z,5.43
2023-05-23T09:11:04.123Z,6.67
2023-05-23T09:13:54.024Z,6.20
2023-05-23T09:16:47.687Z,6.27
2023-05-23T09:19:41.166Z,5.90
2023-05-23T09:22:40.295Z,6.63
2023-05-23T09:25:33.029Z,6.33
2023-05-23T09:28:20.099Z,6.43
2023-05-23T09:31:08.751Z,6.10
2023-05-23T09:33:55.874Z,6.23
2023-05-23T09:36:44.231Z,6.40
2023-05-23T09:39:31.541Z,5.77
2023-05-23T09:42:21.965Z,5.93
2023-05-23T09:45:09.237Z,5.90
2023-05-23T09:47:56.473Z,6.17
2023-05-23T09:50:46.088Z,6.17
2023-05-23T09:53:33.245Z,5.80
2023-05-23T09:56:20.241Z,5.47
2023-05-23T09:59:08.889Z,5.83
2023-05-23T10:01:57.747Z,5.93
2023-05-23T10:04:44.938Z,5.83
2023-05-23T10:07:33.729Z,6.17
2023-05-23T10:10:21.047Z,6.13
2023-05-23T10:13:08.058Z,5.50
2023-05-23T10:16:00.337Z,6.00
2023-05-23T10:18:56.467Z,6.20
2023-05-23T10:21:55.239Z,6.50
2023-05-23T10:24:44.829Z,5.80
2023-05-23T10:27:32.621Z,5.60
2023-05-23T10:30:20.148Z,6.30
2023-05-23T10:33:08.640Z,6.13
2023-05-23T10:36:22.389Z,5.83
2023-05-23T10:39:16.984Z,5.90
2023-05-23T10:42:11.710Z,5.90
2023-05-23T10:45:21.746Z,5.63
2023-05-23T10:48:23.068Z,5.93
2023-05-23T10:51:14.302Z,5.47
2023-05-23T10:54:01.426Z,5.30
2023-05-23T10:57:03.928Z,5.33
2023-05-23T10:59:51.339Z,5.90
2023-05-23T11:02:38.524Z,5.70
2023-05-23T11:05:31.655Z,5.87
2023-05-23T11:08:20.662Z,6.30
2023-05-23T11:11:07.723Z,5.83
2023-05-23T11:13:56.593Z,5.77
2023-05-23T11:16:46.864Z,5.87
2023-05-23T11:19:34.064Z,5.90
2023-05-23T11:22:22.005Z,5.63
2023-05-23T11:25:12.378Z,6.07
2023-05-23T11:27:59.429Z,6.27
2023-05-23T11:30:50.457Z,6.37
2023-05-23T11:33:37.476Z,5.53
2023-05-23T11:36:24.535Z,5.87
2023-05-23T11:39:13.794Z,6.30
2023-05-23T11:42:04.150Z,6.10
2023-05-23T11:44:52.226Z,6.30
2023-05-23T11:47:42.148Z,5.50
2023-05-23T11:50:29.192Z,6.20
2023-05-23T11:53:19.015Z,5.13
2023-05-23T11:56:06.369Z,5.73
2023-05-23T11:58:57.214Z,6.00
2023-05-23T12:01:44.387Z,6.03
2023-05-23T12:04:31.423Z,6.03
2023-05-23T12:07:21.394Z,5.70
2023-05-23T12:10:10.774Z,5.67
2023-05-23T12:12:58.163Z,5.63
2023-05-23T12:15:45.361Z,6.23
2023-05-23T12:18:33.196Z,5.77
2023-05-23T12:21:20.195Z,6.00
2023-05-23T12:24:22.442Z,5.87
2023-05-23T12:27:10.247Z,5.50
2023-05-23T12:30:07.311Z,5.07
2023-05-23T12:32:54.414Z,5.30
2023-05-23T12:35:45.238Z,5.97
2023-05-23T12:38:37.954Z,5.67
2023-05-23T12:41:26.730Z,5.70
2023-05-23T12:44:16.962Z,5.80
2023-05-23T12:47:04.417Z,5.30
2023-05-23T12:49:51.501Z,5.70
2023-05-23T12:52:39.115Z,5.57
2023-05-23T12:55:26.130Z,5.70
2023-05-23T12:58:13.138Z,5.00
2023-05-23T13:01:00.346Z,5.40
2023-05-23T13:03:48.783Z,5.70
2023-05-23T13:06:36.033Z,5.90
2023-05-23T13:09:23.159Z,5.53
2023-05-23T13:12:10.641Z,6.00
2023-05-23T13:14:58.751Z,5.60
2023-05-23T13:17:50.174Z,5.20
2023-05-23T13:20:37.760Z,4.53
2023-05-23T13:23:26.058Z,5.23
2023-05-23T13:26:14.611Z,5.43
2023-05-23T13:29:01.804Z,5.30
2023-05-23T13:31:48.906Z,5.90
2023-05-23T13:34:37.471Z,5.40
2023-05-23T13:37:24.612Z,5.13
2023-05-23T13:40:20.731Z,4.67
2023-05-23T13:43:07.735Z,4.93
2023-05-23T13:45:54.841Z,4.77
2023-05-23T13:48:42.009Z,4.50
2023-05-23T13:51:29.012Z,4.87
2023-05-23T13:54:16.093Z,4.73
2023-05-23T13:57:03.423Z,4.80
2023-05-23T13:59:50.689Z,4.87
2023-05-23T14:02:37.922Z,4.50
2023-05-23T14:05:24.972Z,4.17
2023-05-23T14:08:13.927Z,4.27
2023-05-23T14:11:00.944Z,3.90
2023-05-23T14:13:48.046Z,3.80
2023-05-23T14:16:35.159Z,3.80
2023-05-23T14:19:22.376Z,3.10
2023-05-23T14:22:09.524Z,3.60
2023-05-23T14:24:58.419Z,3.17
2023-05-23T14:27:45.463Z,2.83
2023-05-23T14:30:32.699Z,2.87
2023-05-23T14:33:19.943Z,3.37
2023-05-23T14:36:07.336Z,2.90
2023-05-23T14:38:54.740Z,2.80
2023-05-23T14:41:41.800Z,2.70
2023-05-23T14:44:29.117Z,2.90
2023-05-23T14:47:16.524Z,2.60
2023-05-23T14:50:03.971Z,2.63
2023-05-23T14:52:51.311Z,2.97
2023-05-23T14:55:38.592Z,2.80
2023-05-23T14:58:25.941Z,2.80
2023-05-23T15:01:13.640Z,2.50
2023-05-23T15:04:01.098Z,2.10
2023-05-23T15:06:48.605Z,2.30
2023-05-23T15:09:35.660Z,2.27
2023-05-23T15:12:22.809Z,1.97
2023-05-23T15:15:10.745Z,2.07
2023-05-23T15:18:04.374Z,1.80
2023-05-23T15:20:51.525Z,1.90
2023-05-23T15:23:38.673Z,2.17
2023-05-23T15:26:25.710Z,1.93
2023-05-23T15:29:14.520Z,2.23
2023-05-23T15:32:01.598Z,1.90
2023-05-23T15:34:48.848Z,1.90
2023-05-23T15:37:35.967Z,1.90
2023-05-23T15:40:23.119Z,1.80
2023-05-23T15:43:10.283Z,1.73
2023-05-23T15:45:57.305Z,2.00
2023-05-23T15:48:44.323Z,2.17
2023-05-23T15:51:32.692Z,2.20
2023-05-23T15:54:20.006Z,2.00
2023-05-23T15:57:07.082Z,2.00
2023-05-23T15:59:54.103Z,2.40
2023-05-23T16:02:41.389Z,2.20
2023-05-23T16:05:28.602Z,1.63
2023-05-23T16:08:15.752Z,1.90
2023-05-23T16:11:02.778Z,1.97
2023-05-23T16:13:49.866Z,1.93
2023-05-23T16:16:37.010Z,2.10
2023-05-23T16:19:24.593Z,2.13
2023-05-23T16:22:11.784Z,1.97
2023-05-23T16:24:58.914Z,1.90
2023-05-23T16:27:46.023Z,1.73
2023-05-23T16:30:33.031Z,1.80
2023-05-23T16:33:20.062Z,2.10
2023-05-23T16:36:07.386Z,2.10
2023-05-23T16:38:55.760Z,1.77
2023-05-23T16:41:42.940Z,1.90
2023-05-23T16:44:30.028Z,1.70
2023-05-23T16:47:17.332Z,1.90
2023-05-23T16:50:05.057Z,1.73
2023-05-23T16:52:52.126Z,1.97
2023-05-23T16:55:39.261Z,2.27
2023-05-23T16:58:26.362Z,1.80
2023-05-23T17:01:14.089Z,2.30
2023-05-23T17:04:01.170Z,1.90
2023-05-23T17:06:48.215Z,1.90
2023-05-23T17:09:36.060Z,2.20
2023-05-23T17:12:23.133Z,2.10
2023-05-23T17:15:10.663Z,2.03
2023-05-23T17:17:57.730Z,1.93
2023-05-23T17:20:44.842Z,1.90
2023-05-23T17:23:31.854Z,1.90
2023-05-23T17:26:19.779Z,1.80
2023-05-23T17:29:07.108Z,2.00
2023-05-23T17:31:54.220Z,2.10
2023-05-23T17:34:41.279Z,1.90
2023-05-23T17:37:28.423Z,2.33
2023-05-23T17:40:15.927Z,1.90
2023-05-23T17:43:02.995Z,1.70
2023-05-23T17:45:50.023Z,2.00
2023-05-23T17:48:46.903Z,2.17
2023-05-23T17:51:34.923Z,2.30
2023-05-23T17:54:22.112Z,2.40
2023-05-23T17:57:09.247Z,1.80
2023-05-23T17:59:56.385Z,2.00
2023-05-23T18:02:43.587Z,2.20
2023-05-23T18:05:30.770Z,2.30
2023-05-23T18:08:17.893Z,1.97
2023-05-23T18:11:05.104Z,2.13
2023-05-23T18:13:52.127Z,2.20
2023-05-23T18:16:39.222Z,2.10
2023-05-23T18:19:26.294Z,2.37
2023-05-23T18:22:14.656Z,2.13
2023-05-23T18:25:01.753Z,2.23
2023-05-23T18:27:49.041Z,2.40
2023-05-23T18:30:36.302Z,1.97
2023-05-23T18:33:23.398Z,2.10
2023-05-23T18:36:10.611Z,2.20
2023-05-23T18:38:58.099Z,1.90
2023-05-23T18:41:46.320Z,2.13
2023-05-23T18:44:33.541Z,2.10
2023-05-23T18:47:20.589Z,2.07
2023-05-23T18:50:08.295Z,2.00
2023-05-23T18:52:55.343Z,1.90
2023-05-23T18:55:42.421Z,2.13
2023-05-23T18:58:29.412Z,1.97
2023-05-23T19:01:16.624Z,2.17
2023-05-23T19:04:03.776Z,2.30
2023-05-23T19:06:51.335Z,1.93
2023-05-23T19:09:38.327Z,2.07
2023-05-23T19:12:25.479Z,1.70
2023-05-23T19:15:12.520Z,1.80
2023-05-23T19:17:59.621Z,1.83
2023-05-23T19:20:47.870Z,1.77
2023-05-23T19:23:34.862Z,1.90
2023-05-23T19:26:21.903Z,1.57
2023-05-23T19:29:12.176Z,1.80
2023-05-23T19:31:59.445Z,1.77
2023-05-23T19:34:46.500Z,1.60
2023-05-23T19:37:33.530Z,1.80
2023-05-23T19:40:21.730Z,2.00
2023-05-23T19:43:08.703Z,1.80
2023-05-23T19:45:55.753Z,1.80
2023-05-23T19:48:42.752Z,1.73
2023-05-23T19:51:29.758Z,1.47
2023-05-23T19:54:16.810Z,1.93
2023-05-23T19:57:04.738Z,1.80
2023-05-23T19:59:52.027Z,1.73
2023-05-23T20:02:39.049Z,2.07
2023-05-23T20:05:26.126Z,2.07
2023-05-23T20:08:13.215Z,2.00
2023-05-23T20:11:00.176Z,2.00
2023-05-23T20:13:47.151Z,1.93
2023-05-23T20:16:34.693Z,1.80
2023-05-23T20:19:21.931Z,2.20
2023-05-23T20:22:08.958Z,2.00
2023-05-23T20:24:55.899Z,1.80
2023-05-23T20:27:42.925Z,1.73
2023-05-23T20:30:29.958Z,2.23
2023-05-23T20:33:17.147Z,1.87
2023-05-23T20:36:04.743Z,1.87
2023-05-23T20:38:53.464Z,1.87
2023-05-23T20:41:42.056Z,1.60
2023-05-23T20:44:29.127Z,1.97
2023-05-23T20:47:17.602Z,1.80
2023-05-23T20:50:04.975Z,1.60
2023-05-23T20:52:53.893Z,1.70
2023-05-23T20:55:41.287Z,1.70
2023-05-23T20:58:28.424Z,2.00
2023-05-23T21:01:15.439Z,1.63
2023-05-23T21:04:02.669Z,1.47
2023-05-23T21:06:49.803Z,1.70
2023-05-23T21:09:36.823Z,1.60
2023-05-23T21:12:28.925Z,1.60
2023-05-23T21:15:16.625Z,1.70
2023-05-23T21:18:04.172Z,1.83
2023-05-23T21:20:51.333Z,1.80
2023-05-23T21:23:38.297Z,1.80
2023-05-23T21:26:25.558Z,1.97
2023-05-23T21:29:12.820Z,1.70
2023-05-23T21:31:59.873Z,1.70
2023-05-23T21:34:46.839Z,1.40
2023-05-23T21:37:33.811Z,1.97
2023-05-23T21:40:20.765Z,1.50
2023-05-23T21:43:07.769Z,1.43
2023-05-23T21:45:54.792Z,1.70
2023-05-23T21:48:41.782Z,1.60
2023-05-23T21:51:28.913Z,1.80
2023-05-23T21:54:16.115Z,1.70
2023-05-23T21:57:03.226Z,1.70
2023-05-23T21:59:50.183Z,1.60
2023-05-23T22:02:37.305Z,1.70
2023-05-23T22:05:24.356Z,1.80
2023-05-23T22:08:11.637Z,1.60
2023-05-23T22:10:59.463Z,1.70
2023-05-23T22:13:46.601Z,1.40
2023-05-23T22:16:34.249Z,1.70
2023-05-23T22:19:21.363Z,1.43
2023-05-23T22:22:09.739Z,1.40
2023-05-23T22:24:56.687Z,1.70
2023-05-23T22:27:43.662Z,1.47
2023-05-23T22:30:30.756Z,1.87
2023-05-23T22:33:17.797Z,1.60
2023-05-23T22:36:05.605Z,1.70
2023-05-23T22:38:52.572Z,1.50
2023-05-23T22:41:40.016Z,1.50
2023-05-23T22:44:27.007Z,1.67
2023-05-23T22:47:14.216Z,1.80
2023-05-23T22:50:01.514Z,1.90
2023-05-23T22:52:48.871Z,1.63
2023-05-23T22:55:35.843Z,1.97
2023-05-23T22:58:22.903Z,1.50
2023-05-23T23:01:10.080Z,1.50
2023-05-23T23:03:57.060Z,1.70
2023-05-23T23:06:44.407Z,1.70
2023-05-23T23:09:31.422Z,1.50
2023-05-23T23:12:18.400Z,1.30
2023-05-23T23:15:07.487Z,1.50
2023-05-23T23:17:54.504Z,1.37
2023-05-23T23:20:41.863Z,1.30
2023-05-23T23:23:29.154Z,1.50
2023-05-23T23:26:16.233Z,1.60
2023-05-23T23:29:03.681Z,1.80
2023-05-23T23:31:50.887Z,1.37
2023-05-23T23:34:37.922Z,1.47
2023-05-23T23:37:25.013Z,1.27
2023-05-23T23:40:12.669Z,1.40
2023-05-23T23:42:59.696Z,1.60
2023-05-23T23:45:46.665Z,1.20
2023-05-23T23:48:33.694Z,1.47
2023-05-23T23:51:20.671Z,1.33
2023-05-23T23:54:07.624Z,1.23
2023-05-23T23:56:54.649Z,1.80
2023-05-23T23:59:42.030Z,1.50
